Blacktown, Australia
Current Conditions -  °F | °C
As of 7:00 AM on Thursday 29 Jan 2015 (Local Time) from YSRI Reporting Station
Scattered Clouds Scattered Clouds  
Wind Chill: 61°   Ceiling: Unl
Heat Index: 61°   Visibility: 6mi
Dew Point: 52°   Wind: 7mph
Humidity: 72%   Direction: 210°SSW
Pressure: 29.88"   Gusts: NA
Location:  33.77°S, 150.91°E
Report Text: YSRI 282000Z AUTO 21006KT 9999 // SCT100 16/11 Q1012
Loading
Personal Weather Stations






























Interactive Weather Map New forecast layout! Learn more

10-Day Weather Forecast

Advertisements
Track Severe Weather on mobile